createdAt,value
2018-05-31T00:02:10.207Z,5.00
2018-05-31T00:04:39.786Z,4.77
2018-05-31T00:07:08.690Z,4.97
2018-05-31T00:09:38.729Z,5.30
2018-05-31T00:12:08.331Z,4.97
2018-05-31T00:14:37.897Z,5.10
2018-05-31T00:17:06.729Z,5.43
2018-05-31T00:19:36.281Z,5.20
2018-05-31T00:22:05.103Z,4.83
2018-05-31T00:24:33.931Z,5.13
2018-05-31T00:27:02.724Z,5.20
2018-05-31T00:29:31.524Z,4.97
2018-05-31T00:32:00.376Z,5.07
2018-05-31T00:34:29.199Z,5.10
2018-05-31T00:36:58.012Z,5.00
2018-05-31T00:39:27.587Z,5.60
2018-05-31T00:41:56.409Z,5.27
2018-05-31T00:44:25.256Z,5.80
2018-05-31T00:46:54.012Z,5.87
2018-05-31T00:49:22.822Z,6.27
2018-05-31T00:51:51.628Z,6.67
2018-05-31T00:54:21.221Z,6.70
2018-05-31T00:56:50.132Z,6.17
2018-05-31T00:59:19.784Z,5.80
2018-05-31T01:01:48.646Z,5.90
2018-05-31T01:04:17.472Z,6.10
2018-05-31T01:06:47.038Z,5.80
2018-05-31T01:09:15.830Z,5.93
2018-05-31T01:11:44.642Z,6.33
2018-05-31T01:14:13.487Z,6.20
2018-05-31T01:16:42.303Z,5.97
2018-05-31T01:19:11.886Z,6.20
2018-05-31T01:21:40.700Z,5.40
2018-05-31T01:24:09.506Z,6.37
2018-05-31T01:26:39.229Z,6.53
2018-05-31T01:29:08.794Z,6.30
2018-05-31T01:31:37.626Z,7.00
2018-05-31T01:34:06.460Z,7.47
2018-05-31T01:36:35.307Z,6.57
2018-05-31T01:39:04.926Z,6.53
2018-05-31T01:41:33.720Z,6.97
2018-05-31T01:44:02.542Z,6.97
2018-05-31T01:46:32.096Z,7.37
2018-05-31T01:49:01.045Z,7.00
2018-05-31T01:51:30.612Z,6.23
2018-05-31T01:53:59.421Z,7.07
2018-05-31T01:56:28.236Z,6.10
2018-05-31T01:58:57.038Z,6.03
2018-05-31T02:01:25.864Z,6.20
2018-05-31T02:03:54.676Z,7.23
2018-05-31T02:06:23.867Z,6.87
2018-05-31T02:08:52.663Z,6.80
2018-05-31T02:11:21.485Z,6.77
2018-05-31T02:13:50.300Z,6.67
2018-05-31T02:16:19.170Z,6.23
2018-05-31T02:18:48.756Z,5.70
2018-05-31T02:21:17.546Z,5.80
2018-05-31T02:23:46.354Z,5.07
2018-05-31T02:26:15.190Z,6.57
2018-05-31T02:28:43.984Z,6.30
2018-05-31T02:31:13.606Z,6.20
2018-05-31T02:33:42.452Z,7.33
2018-05-31T02:36:11.315Z,6.20
2018-05-31T02:38:40.895Z,6.90
2018-05-31T02:41:10.475Z,6.83
2018-05-31T02:43:39.299Z,6.30
2018-05-31T02:46:08.127Z,7.40
2018-05-31T02:48:37.686Z,6.90
2018-05-31T02:51:06.623Z,5.90
2018-05-31T02:53:35.453Z,6.93
2018-05-31T02:56:04.255Z,6.00
2018-05-31T02:58:33.464Z,6.93
2018-05-31T03:01:03.047Z,6.87
2018-05-31T03:03:31.827Z,6.40
2018-05-31T03:06:00.715Z,7.00
2018-05-31T03:08:29.533Z,6.30
2018-05-31T03:10:59.114Z,6.70
2018-05-31T03:13:28.705Z,6.20
2018-05-31T03:15:57.511Z,5.77
2018-05-31T03:18:27.065Z,6.10
2018-05-31T03:20:55.883Z,6.43
2018-05-31T03:23:25.461Z,6.23
2018-05-31T03:25:54.248Z,6.50
2018-05-31T03:28:23.079Z,6.20
2018-05-31T03:30:51.889Z,7.00
2018-05-31T03:33:22.214Z,6.57
2018-05-31T03:35:50.981Z,6.57
2018-05-31T03:38:19.823Z,7.17
2018-05-31T03:40:48.719Z,7.40
2018-05-31T03:43:17.629Z,7.50
2018-05-31T03:45:46.449Z,7.50
2018-05-31T03:48:15.281Z,8.17
2018-05-31T03:50:44.898Z,7.60
2018-05-31T03:53:14.477Z,7.20
2018-05-31T03:55:43.373Z,6.43
2018-05-31T03:58:12.192Z,6.57
2018-05-31T04:00:41.099Z,7.43
2018-05-31T04:03:09.893Z,7.13
2018-05-31T04:05:39.551Z,6.20
2018-05-31T04:08:08.401Z,6.43
2018-05-31T04:10:38.009Z,5.93
2018-05-31T04:13:06.856Z,6.13
2018-05-31T04:15:35.637Z,6.03
2018-05-31T04:18:05.263Z,5.73
2018-05-31T04:20:34.870Z,6.10
2018-05-31T04:23:04.417Z,6.27
2018-05-31T04:25:34.042Z,5.73
2018-05-31T04:28:03.653Z,5.97
2018-05-31T04:30:33.260Z,6.07
2018-05-31T04:33:02.975Z,6.00
2018-05-31T04:35:32.537Z,6.13
2018-05-31T04:38:01.375Z,5.97
2018-05-31T04:40:30.989Z,5.60
2018-05-31T04:43:00.687Z,6.27
2018-05-31T04:45:30.271Z,6.43
2018-05-31T04:48:00.116Z,5.83
2018-05-31T04:50:29.696Z,5.63
2018-05-31T04:52:58.490Z,5.70
2018-05-31T04:55:28.069Z,5.40
2018-05-31T04:57:56.866Z,4.87
2018-05-31T05:00:25.802Z,5.53
2018-05-31T05:02:54.619Z,5.40
2018-05-31T05:05:23.408Z,4.80
2018-05-31T05:07:52.249Z,4.80
2018-05-31T05:10:21.842Z,5.50
2018-05-31T05:12:50.764Z,5.10
2018-05-31T05:15:19.682Z,5.00
2018-05-31T05:17:49.277Z,5.10
2018-05-31T05:20:18.200Z,4.13
2018-05-31T05:22:48.012Z,3.70
2018-05-31T05:25:16.807Z,3.87
2018-05-31T05:27:45.634Z,3.73
2018-05-31T05:30:14.460Z,3.63
2018-05-31T05:32:43.332Z,3.83
2018-05-31T05:35:12.900Z,4.43
2018-05-31T05:37:41.742Z,4.30
2018-05-31T05:40:11.308Z,4.10
2018-05-31T05:42:40.249Z,4.20
2018-05-31T05:45:09.085Z,4.47
2018-05-31T05:47:38.695Z,5.07
2018-05-31T05:50:07.532Z,3.50
2018-05-31T05:52:36.303Z,3.50
2018-05-31T05:55:05.127Z,3.77
2018-05-31T05:57:34.746Z,2.93
2018-05-31T06:00:04.316Z,4.03
2018-05-31T06:02:33.110Z,3.00
2018-05-31T06:05:01.930Z,3.23
2018-05-31T06:07:30.770Z,3.07
2018-05-31T06:09:59.601Z,2.77
2018-05-31T06:12:29.857Z,3.23
2018-05-31T06:14:58.691Z,3.00
2018-05-31T06:17:27.508Z,2.97
2018-05-31T06:19:56.423Z,2.77
2018-05-31T06:22:26.031Z,3.00
2018-05-31T06:24:54.912Z,2.60
2018-05-31T06:27:24.514Z,2.20
2018-05-31T06:29:54.113Z,1.83
2018-05-31T06:32:22.932Z,2.50
2018-05-31T06:34:51.733Z,2.00
2018-05-31T06:37:20.622Z,2.17
2018-05-31T06:39:49.349Z,1.90
2018-05-31T06:42:18.151Z,2.17
2018-05-31T06:44:46.954Z,1.80
2018-05-31T06:47:15.757Z,1.90
2018-05-31T06:49:44.577Z,1.77
2018-05-31T06:52:14.298Z,1.73
2018-05-31T06:54:43.108Z,1.73
2018-05-31T06:57:11.912Z,1.50
2018-05-31T06:59:40.740Z,2.20
2018-05-31T07:02:09.571Z,2.37
2018-05-31T07:04:38.389Z,1.70
2018-05-31T07:07:07.211Z,2.00
2018-05-31T07:09:36.776Z,1.83
2018-05-31T07:12:05.566Z,2.20
2018-05-31T07:14:34.413Z,1.63
2018-05-31T07:17:03.213Z,1.70
2018-05-31T07:19:32.027Z,1.70
2018-05-31T07:22:00.831Z,2.50
2018-05-31T07:24:29.665Z,1.97
2018-05-31T07:26:58.486Z,1.57
2018-05-31T07:29:27.285Z,1.90
2018-05-31T07:31:56.862Z,1.40
2018-05-31T07:34:25.654Z,1.40
2018-05-31T07:36:54.533Z,1.27
2018-05-31T07:39:23.400Z,1.53
2018-05-31T07:41:52.222Z,1.37
2018-05-31T07:44:21.086Z,1.33
2018-05-31T07:46:49.799Z,0.87
2018-05-31T07:49:18.607Z,1.03
2018-05-31T07:51:47.419Z,1.10
2018-05-31T07:54:16.235Z,1.43
2018-05-31T07:56:45.043Z,0.80
2018-05-31T07:59:13.851Z,1.20
2018-05-31T08:01:42.708Z,1.10
2018-05-31T08:04:12.285Z,0.80
2018-05-31T08:06:41.115Z,0.87
2018-05-31T08:09:09.907Z,0.67
2018-05-31T08:11:38.769Z,0.83
2018-05-31T08:14:07.559Z,1.40
2018-05-31T08:16:36.379Z,1.40
2018-05-31T08:19:05.172Z,1.30
2018-05-31T08:21:34.763Z,1.20
2018-05-31T08:24:03.697Z,1.10
2018-05-31T08:26:33.251Z,1.00
2018-05-31T08:29:02.212Z,1.10
2018-05-31T08:31:31.110Z,1.87
2018-05-31T08:33:59.857Z,1.80
2018-05-31T08:36:28.649Z,1.60
2018-05-31T08:38:57.461Z,1.60
2018-05-31T08:41:27.065Z,1.53
2018-05-31T08:43:55.887Z,1.80
2018-05-31T08:46:25.468Z,1.33
2018-05-31T08:48:54.253Z,1.80
2018-05-31T08:51:23.073Z,1.73
2018-05-31T08:53:52.426Z,1.80
2018-05-31T08:56:21.255Z,1.43
2018-05-31T08:58:50.058Z,1.60
2018-05-31T09:01:18.870Z,1.50
2018-05-31T09:03:49.267Z,1.70
2018-05-31T09:06:18.083Z,2.10
2018-05-31T09:08:47.465Z,1.90
2018-05-31T09:11:17.063Z,1.80
2018-05-31T09:13:46.144Z,2.20
2018-05-31T09:16:14.948Z,2.53
2018-05-31T09:18:43.771Z,2.70
2018-05-31T09:21:12.559Z,2.80
2018-05-31T09:23:42.222Z,2.50
2018-05-31T09:26:11.041Z,2.63
2018-05-31T09:28:39.863Z,2.40
2018-05-31T09:31:08.704Z,2.33
2018-05-31T09:33:37.505Z,2.07
2018-05-31T09:36:07.084Z,2.30
2018-05-31T09:38:35.884Z,2.80
2018-05-31T09:41:04.754Z,2.10
2018-05-31T09:43:33.524Z,2.03
2018-05-31T09:46:03.085Z,2.33
2018-05-31T09:48:31.943Z,3.47
2018-05-31T09:51:01.504Z,3.27
2018-05-31T09:53:30.543Z,3.10
2018-05-31T09:55:59.388Z,3.20
2018-05-31T09:58:28.246Z,3.83
2018-05-31T10:00:57.793Z,3.37
2018-05-31T10:03:26.600Z,3.87
2018-05-31T10:05:55.411Z,3.10
2018-05-31T10:08:24.218Z,3.80
2018-05-31T10:10:53.046Z,3.10
2018-05-31T10:13:21.858Z,3.13
2018-05-31T10:15:50.662Z,6.00
2018-05-31T10:18:19.503Z,4.70
2018-05-31T10:20:49.078Z,4.00
2018-05-31T10:23:18.672Z,3.77
2018-05-31T10:25:47.481Z,3.83
2018-05-31T10:28:16.341Z,3.03
2018-05-31T10:30:45.160Z,3.63
2018-05-31T10:33:14.002Z,3.70
2018-05-31T10:35:42.917Z,3.63
2018-05-31T10:38:12.497Z,4.30
2018-05-31T10:40:41.295Z,3.00
2018-05-31T10:43:10.192Z,5.03
2018-05-31T10:45:39.004Z,3.93
2018-05-31T10:48:07.805Z,3.27
2018-05-31T10:50:36.628Z,2.57
2018-05-31T10:53:05.428Z,3.50
2018-05-31T10:55:34.245Z,3.80
2018-05-31T10:58:03.066Z,2.73
2018-05-31T11:00:31.961Z,3.50
2018-05-31T11:03:00.890Z,4.50
2018-05-31T11:05:30.567Z,3.20
2018-05-31T11:07:59.457Z,3.77
2018-05-31T11:10:28.292Z,5.50
2018-05-31T11:12:57.076Z,3.70
2018-05-31T11:15:25.883Z,4.27
2018-05-31T11:17:54.794Z,3.47
2018-05-31T11:20:24.346Z,3.60
2018-05-31T11:22:53.272Z,2.77
2018-05-31T11:25:22.853Z,3.70
2018-05-31T11:27:51.794Z,2.63
2018-05-31T11:30:21.340Z,3.50
2018-05-31T11:32:50.186Z,2.80
2018-05-31T11:35:18.978Z,3.63
2018-05-31T11:37:47.774Z,3.50
2018-05-31T11:40:16.588Z,3.10
2018-05-31T11:42:45.389Z,2.53
2018-05-31T11:45:14.973Z,2.70
2018-05-31T11:47:44.034Z,2.50
2018-05-31T11:50:12.854Z,3.30
2018-05-31T11:52:41.672Z,2.73
2018-05-31T11:55:10.495Z,3.40
2018-05-31T11:57:39.314Z,2.40
2018-05-31T12:00:08.913Z,2.30
2018-05-31T12:02:37.723Z,2.53
2018-05-31T12:05:06.512Z,1.87
2018-05-31T12:07:35.351Z,1.87
2018-05-31T12:10:04.176Z,2.10
2018-05-31T12:12:32.999Z,1.97
2018-05-31T12:15:01.786Z,2.40
2018-05-31T12:17:30.613Z,2.20
2018-05-31T12:19:59.420Z,2.00
2018-05-31T12:22:28.306Z,2.60
2018-05-31T12:24:57.095Z,2.53
2018-05-31T12:27:25.887Z,2.57
2018-05-31T12:29:54.678Z,2.83
2018-05-31T12:32:23.566Z,2.37
2018-05-31T12:34:52.384Z,4.60
2018-05-31T12:37:21.205Z,3.00
2018-05-31T12:39:49.993Z,3.73
2018-05-31T12:42:18.817Z,3.13
2018-05-31T12:44:47.655Z,2.57
2018-05-31T12:47:16.473Z,2.50
2018-05-31T12:49:45.349Z,4.00
2018-05-31T12:52:14.921Z,2.60
2018-05-31T12:54:43.777Z,2.33
2018-05-31T12:57:12.584Z,2.70
2018-05-31T12:59:41.509Z,2.13
2018-05-31T13:02:11.114Z,2.43
2018-05-31T13:04:39.912Z,2.70
2018-05-31T13:07:09.638Z,2.70
2018-05-31T13:09:39.241Z,2.10
2018-05-31T13:12:08.850Z,2.10
2018-05-31T13:14:37.632Z,2.00
2018-05-31T13:17:06.446Z,1.80
2018-05-31T13:19:36.002Z,2.40
2018-05-31T13:22:04.794Z,2.17
2018-05-31T13:24:34.411Z,2.10
2018-05-31T13:27:04.018Z,8.17
2018-05-31T13:29:32.912Z,5.43
2018-05-31T13:32:01.705Z,6.03
2018-05-31T13:34:31.285Z,4.87
2018-05-31T13:37:00.086Z,4.00
2018-05-31T13:39:28.974Z,6.90
2018-05-31T13:41:57.805Z,5.73
2018-05-31T13:44:26.602Z,3.97
2018-05-31T13:46:56.153Z,3.27
2018-05-31T13:49:25.078Z,4.23
2018-05-31T13:51:53.905Z,3.77
2018-05-31T13:54:22.707Z,4.27
2018-05-31T13:56:51.532Z,4.40
2018-05-31T13:59:20.345Z,4.40
2018-05-31T14:01:49.935Z,4.93
2018-05-31T14:04:18.730Z,3.27
2018-05-31T14:06:47.557Z,3.63
2018-05-31T14:09:16.410Z,2.50
2018-05-31T14:11:45.309Z,2.57
2018-05-31T14:14:14.102Z,2.43
2018-05-31T14:16:42.904Z,4.23
2018-05-31T14:19:11.735Z,3.53
2018-05-31T14:21:40.603Z,3.20
2018-05-31T14:24:09.404Z,2.57
2018-05-31T14:26:38.216Z,2.93
2018-05-31T14:29:07.161Z,2.33
2018-05-31T14:31:36.031Z,2.90
2018-05-31T14:34:04.834Z,2.70
2018-05-31T14:36:34.416Z,2.13
2018-05-31T14:39:03.764Z,2.10
2018-05-31T14:41:32.595Z,2.07
2018-05-31T14:44:01.397Z,1.87
2018-05-31T14:46:30.310Z,1.90
2018-05-31T14:48:59.917Z,2.37
2018-05-31T14:51:28.705Z,2.90
2018-05-31T14:53:57.621Z,3.97
2018-05-31T14:56:27.199Z,4.80
2018-05-31T14:58:56.013Z,5.33
2018-05-31T15:01:24.830Z,5.20
2018-05-31T15:03:54.015Z,5.53
2018-05-31T15:06:22.827Z,6.13
2018-05-31T15:08:51.657Z,6.23
2018-05-31T15:11:21.215Z,5.97
2018-05-31T15:13:50.169Z,4.73
2018-05-31T15:16:18.959Z,4.77
2018-05-31T15:18:47.743Z,4.50
2018-05-31T15:21:16.567Z,3.67
2018-05-31T15:23:45.388Z,4.43
2018-05-31T15:26:14.220Z,4.97
2018-05-31T15:28:43.040Z,4.20
2018-05-31T15:31:12.623Z,5.73
2018-05-31T15:33:41.534Z,5.23
2018-05-31T15:36:10.469Z,5.17
2018-05-31T15:38:39.291Z,5.27
2018-05-31T15:41:08.091Z,5.03
2018-05-31T15:43:38.149Z,4.83
2018-05-31T15:46:06.951Z,4.30
2018-05-31T15:48:35.755Z,4.67
2018-05-31T15:51:04.555Z,4.47
2018-05-31T15:53:33.392Z,3.70
2018-05-31T15:56:02.181Z,3.93
2018-05-31T15:58:31.741Z,4.30
2018-05-31T16:01:00.561Z,4.07
2018-05-31T16:03:29.405Z,4.17
2018-05-31T16:05:58.209Z,4.20
2018-05-31T16:08:27.125Z,4.70
2018-05-31T16:10:55.959Z,4.60
2018-05-31T16:13:24.747Z,3.63
2018-05-31T16:15:53.585Z,4.33
2018-05-31T16:18:22.431Z,4.20
2018-05-31T16:20:51.251Z,4.10
2018-05-31T16:23:20.429Z,4.53
2018-05-31T16:25:49.373Z,4.30
2018-05-31T16:28:18.975Z,4.23
2018-05-31T16:30:48.591Z,4.20
2018-05-31T16:33:18.159Z,4.07
2018-05-31T16:35:46.959Z,4.10
2018-05-31T16:38:15.771Z,4.20
2018-05-31T16:40:44.641Z,4.23
2018-05-31T16:43:14.179Z,3.60
2018-05-31T16:45:43.746Z,3.37
2018-05-31T16:48:12.544Z,3.33
2018-05-31T16:50:41.345Z,3.47
2018-05-31T16:53:10.174Z,4.37
2018-05-31T16:55:38.980Z,4.80
2018-05-31T16:58:07.786Z,3.17
2018-05-31T17:00:36.592Z,2.33
2018-05-31T17:03:06.956Z,2.47
2018-05-31T17:05:35.782Z,3.17
2018-05-31T17:08:04.606Z,8.73
2018-05-31T17:10:33.414Z,9.07
2018-05-31T17:13:02.224Z,8.07
2018-05-31T17:15:31.933Z,7.67
2018-05-31T17:18:01.523Z,8.60
2018-05-31T17:20:30.351Z,8.03
2018-05-31T17:22:59.891Z,5.67
2018-05-31T17:25:28.704Z,6.10
2018-05-31T17:27:58.303Z,7.10
2018-05-31T17:30:27.220Z,6.50
2018-05-31T17:32:56.808Z,7.30
2018-05-31T17:38:00.784Z,5.80
2018-05-31T17:40:29.591Z,7.23
2018-05-31T17:42:58.446Z,5.83
2018-05-31T17:45:27.220Z,6.23
2018-05-31T17:47:56.151Z,7.47
2018-05-31T17:50:25.057Z,7.00
2018-05-31T17:52:54.610Z,7.53
2018-05-31T17:55:23.510Z,7.30
2018-05-31T17:57:52.268Z,7.07
2018-05-31T18:00:21.091Z,6.97
2018-05-31T18:02:49.944Z,7.47
2018-05-31T18:05:18.758Z,7.30
2018-05-31T18:07:47.700Z,7.67
2018-05-31T18:10:17.259Z,7.73
2018-05-31T18:12:46.070Z,7.30
2018-05-31T18:15:14.907Z,6.43
2018-05-31T18:17:43.724Z,8.03
2018-05-31T18:20:12.550Z,7.43
2018-05-31T18:22:41.337Z,7.00
2018-05-31T18:25:10.936Z,6.57
2018-05-31T18:27:39.806Z,7.27
2018-05-31T18:30:08.600Z,5.90
2018-05-31T18:32:37.394Z,5.33
2018-05-31T18:35:06.296Z,4.67
2018-05-31T18:37:35.134Z,3.90
2018-05-31T18:40:04.035Z,2.87
2018-05-31T18:42:32.870Z,2.90
2018-05-31T18:45:01.678Z,2.67
2018-05-31T18:47:30.511Z,3.27
2018-05-31T18:49:59.314Z,3.93
2018-05-31T18:52:28.111Z,4.90
2018-05-31T18:54:56.918Z,3.37
2018-05-31T18:57:25.743Z,3.97
2018-05-31T18:59:54.635Z,5.40
2018-05-31T19:02:23.442Z,7.63
2018-05-31T19:04:53.022Z,7.47
2018-05-31T19:07:28.343Z,7.67
2018-05-31T19:09:57.211Z,7.07
2018-05-31T19:12:31.562Z,7.77
2018-05-31T19:15:01.174Z,7.60
2018-05-31T19:17:30.746Z,6.57
2018-05-31T19:19:59.544Z,5.30
2018-05-31T19:22:28.369Z,5.67
2018-05-31T19:25:03.778Z,4.30
2018-05-31T19:27:32.589Z,4.27
2018-05-31T19:30:07.781Z,4.13
2018-05-31T19:32:36.591Z,3.70
2018-05-31T19:35:05.413Z,2.80
2018-05-31T19:37:34.235Z,3.23
2018-05-31T19:40:03.048Z,2.90
2018-05-31T19:42:38.107Z,2.73
2018-05-31T19:45:06.892Z,2.70
2018-05-31T19:47:35.732Z,2.70
2018-05-31T19:50:04.520Z,2.37
2018-05-31T19:52:38.821Z,2.73
2018-05-31T19:55:07.630Z,2.70
2018-05-31T19:57:42.796Z,3.13
2018-05-31T20:00:17.026Z,2.93
2018-05-31T20:02:51.457Z,3.73
2018-05-31T20:05:20.276Z,4.70
2018-05-31T20:07:49.076Z,5.40
2018-05-31T20:10:18.001Z,6.70
2018-05-31T20:12:47.566Z,5.87
2018-05-31T20:15:16.583Z,6.33
2018-05-31T20:17:46.124Z,6.67
2018-05-31T20:20:14.979Z,6.73
2018-05-31T20:22:44.548Z,7.70
2018-05-31T20:25:13.373Z,7.07
2018-05-31T20:27:42.179Z,7.33
2018-05-31T20:30:11.047Z,6.90
2018-05-31T20:32:40.409Z,7.33
2018-05-31T20:35:09.989Z,6.60
2018-05-31T20:37:38.789Z,7.30
2018-05-31T20:40:07.715Z,5.60
2018-05-31T20:42:36.506Z,7.60
2018-05-31T20:45:06.109Z,6.90
2018-05-31T20:47:34.915Z,7.77
2018-05-31T20:50:06.033Z,7.93
2018-05-31T20:52:34.825Z,8.73
2018-05-31T20:55:04.442Z,9.17
2018-05-31T20:57:34.045Z,8.67
2018-05-31T21:00:03.607Z,7.23
2018-05-31T21:02:32.416Z,8.13
2018-05-31T21:05:01.266Z,7.80
2018-05-31T21:07:30.077Z,8.13
2018-05-31T21:09:59.646Z,7.90
2018-05-31T21:12:28.471Z,8.20
2018-05-31T21:14:57.280Z,8.73
2018-05-31T21:17:26.980Z,9.30
2018-05-31T21:20:06.058Z,8.13
2018-05-31T21:22:35.622Z,7.33
2018-05-31T21:25:04.431Z,7.93
2018-05-31T21:27:33.260Z,7.50
2018-05-31T21:30:02.042Z,7.13
2018-05-31T21:32:30.860Z,7.67
2018-05-31T21:34:59.644Z,8.10
2018-05-31T21:37:28.468Z,7.67
2018-05-31T21:39:58.030Z,7.37
2018-05-31T21:42:26.835Z,7.07
2018-05-31T21:44:55.658Z,8.00
2018-05-31T21:47:25.230Z,7.87
2018-05-31T21:50:05.328Z,7.67
2018-05-31T21:52:34.177Z,7.33
2018-05-31T21:55:03.094Z,7.60
2018-05-31T21:57:31.901Z,7.40
2018-05-31T22:00:00.759Z,7.13
2018-05-31T22:02:30.314Z,7.50
2018-05-31T22:04:59.115Z,7.07
2018-05-31T22:07:27.972Z,7.17
2018-05-31T22:09:57.497Z,7.93
2018-05-31T22:12:26.314Z,7.23
2018-05-31T22:14:55.230Z,7.77
2018-05-31T22:17:24.032Z,8.07
2018-05-31T22:19:53.610Z,6.40
2018-05-31T22:22:22.418Z,6.50
2018-05-31T22:24:51.263Z,7.30
2018-05-31T22:27:20.087Z,6.53
2018-05-31T22:29:48.899Z,7.23
2018-05-31T22:32:17.721Z,6.80
2018-05-31T22:34:48.713Z,7.20
2018-05-31T22:37:17.551Z,7.33
2018-05-31T22:39:46.371Z,7.00
2018-05-31T22:42:15.933Z,7.60
2018-05-31T22:44:45.557Z,7.03
2018-05-31T22:47:14.361Z,6.97
2018-05-31T22:49:43.929Z,7.20
2018-05-31T22:52:12.857Z,6.93
2018-05-31T22:54:42.423Z,7.13
2018-05-31T22:57:11.241Z,6.10
2018-05-31T22:59:40.056Z,7.53
2018-05-31T23:02:09.629Z,7.47
2018-05-31T23:04:38.501Z,7.60
2018-05-31T23:07:08.057Z,7.20
2018-05-31T23:09:36.857Z,7.50
2018-05-31T23:12:05.677Z,7.00
2018-05-31T23:14:34.468Z,7.37
2018-05-31T23:17:03.271Z,6.77
2018-05-31T23:19:32.084Z,6.97
2018-05-31T23:22:00.919Z,7.37
2018-05-31T23:24:29.708Z,7.60
2018-05-31T23:26:58.578Z,8.37
2018-05-31T23:29:27.448Z,7.27
2018-05-31T23:31:57.069Z,8.20
2018-05-31T23:34:25.882Z,8.00
2018-05-31T23:36:54.683Z,8.07
2018-05-31T23:39:24.257Z,7.97
2018-05-31T23:41:53.198Z,7.53
2018-05-31T23:44:21.968Z,8.20
2018-05-31T23:46:50.785Z,8.27
2018-05-31T23:49:19.576Z,8.37
2018-05-31T23:51:48.494Z,7.77
2018-05-31T23:54:17.289Z,8.53
2018-05-31T23:56:46.104Z,9.07
2018-05-31T23:59:14.923Z,9.37
